createdAt,value
2023-02-05T00:00:20.075Z,103405.63
2023-02-05T00:02:47.111Z,103400.47
2023-02-05T00:05:13.797Z,103403.94
2023-02-05T00:07:40.475Z,103405.75
2023-02-05T00:10:07.509Z,103397.13
2023-02-05T00:12:34.374Z,103392.72
2023-02-05T00:15:01.023Z,103386.66
2023-02-05T00:17:28.690Z,103381.16
2023-02-05T00:19:55.471Z,103387.78
2023-02-05T00:22:22.426Z,103378.91
2023-02-05T00:24:49.080Z,103364.06
2023-02-05T00:27:15.778Z,103367.97
2023-02-05T00:29:42.486Z,103365.94
2023-02-05T00:32:09.155Z,103372.56
2023-02-05T00:34:35.817Z,103361.91
2023-02-05T00:37:02.463Z,103360.88
2023-02-05T00:39:29.170Z,103357.94
2023-02-05T00:41:55.922Z,103350.63
2023-02-05T00:44:22.596Z,103348.69
2023-02-05T00:46:51.449Z,103342.53
2023-02-05T00:49:18.098Z,103339.72
2023-02-05T00:51:44.780Z,103337.94
2023-02-05T00:54:11.605Z,103339.72
2023-02-05T00:56:38.292Z,103330.19
2023-02-05T00:59:05.017Z,103338.94
2023-02-05T01:01:31.919Z,103331.31
2023-02-05T01:03:58.778Z,103322.00
2023-02-05T01:06:25.448Z,103319.56
2023-02-05T01:08:52.206Z,103303.19
2023-02-05T01:11:20.113Z,103309.22
2023-02-05T01:13:46.840Z,103302.47
2023-02-05T01:16:13.944Z,103296.56
2023-02-05T01:18:40.909Z,103302.06
2023-02-05T01:21:07.579Z,103297.22
2023-02-05T01:23:34.234Z,103299.38
2023-02-05T01:26:00.910Z,103292.75
2023-02-05T01:28:27.614Z,103292.19
2023-02-05T01:30:54.348Z,103282.78
2023-02-05T01:33:21.061Z,103277.84
2023-02-05T01:35:48.924Z,103261.69
2023-02-05T01:38:16.005Z,103267.53
2023-02-05T01:40:42.720Z,103266.38
2023-02-05T01:43:17.291Z,103252.38
2023-02-05T01:46:07.081Z,103259.19
2023-02-05T01:48:42.697Z,103253.78
2023-02-05T01:51:13.245Z,103257.91
2023-02-05T01:53:40.365Z,103249.81
2023-02-05T01:56:12.838Z,103242.63
2023-02-05T01:58:49.642Z,103233.59
2023-02-05T02:01:16.604Z,103240.31
2023-02-05T02:03:44.129Z,103237.03
2023-02-05T02:06:10.886Z,103233.06
2023-02-05T02:08:37.599Z,103230.88
2023-02-05T02:11:07.323Z,103226.13
2023-02-05T02:13:35.669Z,103229.94
2023-02-05T02:16:03.865Z,103224.19
2023-02-05T02:18:32.976Z,103211.69
2023-02-05T02:21:08.555Z,103210.28
2023-02-05T02:23:50.204Z,103209.00
2023-02-05T02:27:02.146Z,103203.38
2023-02-05T02:29:47.014Z,103196.91
2023-02-05T02:32:20.633Z,103204.06
2023-02-05T02:34:53.912Z,103195.63
2023-02-05T02:37:26.589Z,103182.97
2023-02-05T02:40:08.342Z,103186.75
2023-02-05T02:42:43.314Z,103179.19
2023-02-05T02:45:13.012Z,103182.38
2023-02-05T02:47:47.909Z,103175.72
2023-02-05T02:50:33.163Z,103168.34
2023-02-05T02:53:12.876Z,103164.34
2023-02-05T02:55:43.818Z,103158.47
2023-02-05T02:58:18.426Z,103160.47
2023-02-05T03:00:47.176Z,103151.13
2023-02-05T03:03:16.845Z,103161.75
2023-02-05T03:05:46.722Z,103155.00
2023-02-05T03:08:37.746Z,103154.31
2023-02-05T03:11:13.656Z,103147.50
2023-02-05T03:13:41.721Z,103150.22
2023-02-05T03:16:09.409Z,103152.88
2023-02-05T03:18:37.166Z,103158.25
2023-02-05T03:21:09.233Z,103154.09
2023-02-05T03:23:35.910Z,103161.13
2023-02-05T03:26:02.578Z,103154.38
2023-02-05T03:28:29.314Z,103145.78
2023-02-05T03:31:22.694Z,103149.38
2023-02-05T03:34:16.032Z,103154.03
2023-02-05T03:36:59.720Z,103149.03
2023-02-05T03:39:54.320Z,103147.44
2023-02-05T03:42:32.321Z,103157.13
2023-02-05T03:44:58.935Z,103144.16
2023-02-05T03:47:40.638Z,103144.34
2023-02-05T03:50:20.438Z,103136.75
2023-02-05T03:53:12.965Z,103137.81
2023-02-05T03:55:46.605Z,103136.25
2023-02-05T03:58:35.104Z,103131.94
2023-02-05T04:01:02.148Z,103126.06
2023-02-05T04:03:28.866Z,103128.72
2023-02-05T04:05:56.367Z,103127.13
2023-02-05T04:08:23.072Z,103137.69
2023-02-05T04:10:49.714Z,103134.28
2023-02-05T04:13:16.420Z,103132.59
2023-02-05T04:15:43.868Z,103130.19
2023-02-05T04:18:10.537Z,103122.34
2023-02-05T04:20:37.231Z,103108.47
2023-02-05T04:23:03.902Z,103116.34
2023-02-05T04:25:30.546Z,103112.03
2023-02-05T04:27:57.257Z,103095.72
2023-02-05T04:30:24.097Z,103093.13
2023-02-05T04:32:50.805Z,103091.31
2023-02-05T04:35:17.552Z,103090.53
2023-02-05T04:37:44.266Z,103094.97
2023-02-05T04:40:11.494Z,103089.00
2023-02-05T04:42:38.330Z,103088.09
2023-02-05T04:45:06.027Z,103079.59
2023-02-05T04:47:33.234Z,103085.69
2023-02-05T04:49:59.925Z,103077.19
2023-02-05T04:52:26.694Z,103074.59
2023-02-05T04:54:53.347Z,103080.88
2023-02-05T04:57:20.037Z,103080.88
2023-02-05T04:59:46.710Z,103074.97
2023-02-05T05:02:13.562Z,103081.25
2023-02-05T05:04:42.857Z,103067.44
2023-02-05T05:07:10.376Z,103071.94
2023-02-05T05:09:37.455Z,103064.34
2023-02-05T05:12:05.715Z,103069.72
2023-02-05T05:14:32.383Z,103069.97
2023-02-05T05:16:59.036Z,103058.06
2023-02-05T05:19:25.708Z,103063.53
2023-02-05T05:21:52.369Z,103059.25
2023-02-05T05:24:19.199Z,103052.44
2023-02-05T05:26:46.620Z,103053.59
2023-02-05T05:29:13.662Z,103058.16
2023-02-05T05:31:41.155Z,103055.75
2023-02-05T05:34:07.944Z,103054.09
2023-02-05T05:36:34.797Z,103048.13
2023-02-05T05:39:21.401Z,103053.69
2023-02-05T05:42:06.691Z,103039.97
2023-02-05T05:44:33.339Z,103053.13
2023-02-05T05:47:00.043Z,103048.03
2023-02-05T05:49:26.708Z,103046.31
2023-02-05T05:51:53.492Z,103038.78
2023-02-05T05:54:20.167Z,103035.38
2023-02-05T05:56:46.946Z,103030.34
2023-02-05T05:59:13.606Z,103042.56
2023-02-05T06:01:40.265Z,103028.81
2023-02-05T06:04:07.115Z,103033.31
2023-02-05T06:06:34.121Z,103032.47
2023-02-05T06:09:00.807Z,103029.09
2023-02-05T06:11:27.512Z,103032.66
2023-02-05T06:13:54.248Z,103039.84
2023-02-05T06:16:20.959Z,103030.41
2023-02-05T06:18:47.687Z,103035.59
2023-02-05T06:21:14.623Z,103034.97
2023-02-05T06:23:41.343Z,103024.66
2023-02-05T06:26:08.028Z,103033.34
2023-02-05T06:28:34.766Z,103033.53
2023-02-05T06:31:01.496Z,103031.00
2023-02-05T06:33:28.218Z,103023.22
2023-02-05T06:35:54.904Z,103019.88
2023-02-05T06:38:21.568Z,103029.47
2023-02-05T06:40:48.981Z,103026.88
2023-02-05T06:43:15.923Z,103032.94
2023-02-05T06:45:42.583Z,103031.28
2023-02-05T06:48:09.313Z,103035.72
2023-02-05T06:50:35.958Z,103041.97
2023-02-05T06:53:02.643Z,103043.78
2023-02-05T06:55:29.293Z,103042.97
2023-02-05T06:57:55.942Z,103043.94
2023-02-05T07:00:22.711Z,103040.59
2023-02-05T07:02:49.460Z,103034.78
2023-02-05T07:05:16.210Z,103037.53
2023-02-05T07:07:42.920Z,103031.53
2023-02-05T07:10:09.860Z,103041.19
2023-02-05T07:12:36.578Z,103032.59
2023-02-05T07:15:03.554Z,103047.53
2023-02-05T07:17:30.256Z,103043.31
2023-02-05T07:19:56.966Z,103037.22
2023-02-05T07:22:23.593Z,103037.31
2023-02-05T07:24:50.447Z,103046.00
2023-02-05T07:27:17.342Z,103048.66
2023-02-05T07:29:43.977Z,103052.25
2023-02-05T07:32:10.681Z,103052.34
2023-02-05T07:34:37.364Z,103049.81
2023-02-05T07:37:04.056Z,103039.50
2023-02-05T07:39:30.709Z,103042.25
2023-02-05T07:41:57.364Z,103037.94
2023-02-05T07:44:24.004Z,103037.22
2023-02-05T07:46:50.729Z,103041.69
2023-02-05T07:49:17.563Z,103037.47
2023-02-05T07:51:44.229Z,103043.75
2023-02-05T07:54:14.588Z,103038.59
2023-02-05T07:56:42.493Z,103047.41
2023-02-05T07:59:09.242Z,103048.34
2023-02-05T08:01:36.031Z,103050.94
2023-02-05T08:04:02.791Z,103056.25
2023-02-05T08:06:29.501Z,103049.41
2023-02-05T08:08:56.238Z,103054.69
2023-02-05T08:11:22.904Z,103045.25
2023-02-05T08:13:49.598Z,103047.13
2023-02-05T08:16:16.873Z,103046.41
2023-02-05T08:18:47.498Z,103051.78
2023-02-05T08:21:14.303Z,103055.31
2023-02-05T08:23:40.957Z,103048.50
2023-02-05T08:26:07.646Z,103052.97
2023-02-05T08:28:34.451Z,103059.28
2023-02-05T08:31:01.188Z,103049.88
2023-02-05T08:33:27.881Z,103059.53
2023-02-05T08:35:54.615Z,103053.59
2023-02-05T08:38:21.256Z,103057.19
2023-02-05T08:40:47.981Z,103054.81
2023-02-05T08:43:14.649Z,103061.94
2023-02-05T08:45:41.376Z,103068.19
2023-02-05T08:48:08.074Z,103058.03
2023-02-05T08:50:34.746Z,103064.19
2023-02-05T08:53:01.444Z,103053.94
2023-02-05T08:55:28.189Z,103055.75
2023-02-05T08:57:55.612Z,103055.00
2023-02-05T09:00:22.429Z,103050.84
2023-02-05T09:02:49.525Z,103050.03
2023-02-05T09:05:16.301Z,103045.72
2023-02-05T09:07:43.003Z,103043.13
2023-02-05T09:10:11.915Z,103036.19
2023-02-05T09:12:39.240Z,103043.03
2023-02-05T09:15:07.070Z,103048.06
2023-02-05T09:17:33.827Z,103032.03
2023-02-05T09:20:00.588Z,103030.88
2023-02-05T09:22:27.288Z,103030.56
2023-02-05T09:24:53.951Z,103007.66
2023-02-05T09:27:20.637Z,103018.88
2023-02-05T09:29:47.282Z,102993.53
2023-02-05T09:32:14.046Z,102999.56
2023-02-05T09:34:40.791Z,102998.75
2023-02-05T09:37:07.438Z,102998.75
2023-02-05T09:40:18.529Z,102995.25
2023-02-05T09:42:27.807Z,102988.19
2023-02-05T09:45:21.423Z,102979.31
2023-02-05T09:47:59.925Z,102987.06
2023-02-05T09:50:32.049Z,102988.84
2023-02-05T09:53:08.777Z,102975.13
2023-02-05T09:55:44.783Z,102975.00
2023-02-05T09:58:16.413Z,102969.66
2023-02-05T10:00:54.998Z,102970.47
2023-02-05T10:03:49.659Z,102967.06
2023-02-05T10:06:36.506Z,102971.31
2023-02-05T10:09:42.101Z,102963.50
2023-02-05T10:12:24.002Z,102977.47
2023-02-05T10:15:21.577Z,102968.75
2023-02-05T10:18:03.459Z,102963.34
2023-02-05T10:20:53.038Z,102964.00
2023-02-05T10:23:47.035Z,102964.91
2023-02-05T10:26:15.176Z,102949.28
2023-02-05T10:29:21.640Z,102952.94
2023-02-05T10:32:00.483Z,102948.69
2023-02-05T10:35:00.002Z,102946.25
2023-02-05T10:37:51.167Z,102951.44
2023-02-05T10:40:31.389Z,102951.59
2023-02-05T10:43:07.078Z,102942.84
2023-02-05T10:45:34.065Z,102941.19
2023-02-05T10:48:27.019Z,102937.78
2023-02-05T10:51:04.165Z,102938.09
2023-02-05T10:53:31.331Z,102941.81
2023-02-05T10:56:00.276Z,102938.41
2023-02-05T10:58:40.494Z,102940.31
2023-02-05T11:01:32.164Z,102941.47
2023-02-05T11:04:13.762Z,102930.38
2023-02-05T11:06:51.186Z,102935.00
2023-02-05T11:09:26.800Z,102931.63
2023-02-05T11:11:55.795Z,102942.28
2023-02-05T11:14:34.535Z,102935.56
2023-02-05T11:17:26.812Z,102949.94
2023-02-05T11:19:56.666Z,102944.13
2023-02-05T11:22:31.766Z,102933.94
2023-02-05T11:25:06.323Z,102933.19
2023-02-05T11:27:35.408Z,102927.22
2023-02-05T11:30:47.691Z,102926.56
2023-02-05T11:33:22.855Z,102932.72
2023-02-05T11:35:58.220Z,102938.06
2023-02-05T11:38:32.391Z,102944.41
2023-02-05T11:41:07.367Z,102950.41
2023-02-05T11:43:40.567Z,102939.84
2023-02-05T11:46:10.231Z,102946.72
2023-02-05T11:48:55.823Z,102950.16
2023-02-05T11:51:45.869Z,102957.13
2023-02-05T11:54:19.684Z,102958.00
2023-02-05T11:57:27.539Z,102953.69
2023-02-05T12:00:18.531Z,102958.91
2023-02-05T12:02:45.424Z,102953.69
2023-02-05T12:05:12.482Z,102958.91
2023-02-05T12:07:41.886Z,102955.47
2023-02-05T12:10:26.140Z,102953.69
2023-02-05T12:13:12.082Z,102944.16
2023-02-05T12:15:53.945Z,102952.06
2023-02-05T12:18:46.103Z,102951.97
2023-02-05T12:21:45.837Z,102938.06
2023-02-05T12:24:33.445Z,102929.38
2023-02-05T12:27:25.838Z,102911.88
2023-02-05T12:30:28.429Z,102910.16
2023-02-05T12:33:23.941Z,102924.09
2023-02-05T12:36:37.189Z,102923.31
2023-02-05T12:39:06.778Z,102919.00
2023-02-05T12:41:55.168Z,102918.22
2023-02-05T12:44:48.892Z,102923.47
2023-02-05T12:47:44.806Z,102932.19
2023-02-05T12:50:36.056Z,102930.41
2023-02-05T12:53:05.642Z,102927.84
2023-02-05T12:55:41.062Z,102922.75
2023-02-05T12:58:11.575Z,102921.09
2023-02-05T13:00:44.976Z,102924.75
2023-02-05T13:03:25.170Z,102931.78
2023-02-05T13:05:57.319Z,102927.47
2023-02-05T13:08:48.811Z,102931.03
2023-02-05T13:11:25.740Z,102928.44
2023-02-05T13:13:59.135Z,102933.69
2023-02-05T13:16:45.964Z,102934.53
2023-02-05T13:19:42.687Z,102932.81
2023-02-05T13:22:42.538Z,102922.41
2023-02-05T13:25:38.341Z,102920.69
2023-02-05T13:28:40.582Z,102928.50
2023-02-05T13:31:27.856Z,102936.25
2023-02-05T13:33:57.330Z,102937.13
2023-02-05T13:36:23.913Z,102934.53
2023-02-05T13:39:13.542Z,102950.25
2023-02-05T13:41:58.422Z,102948.59
2023-02-05T13:44:38.381Z,102951.19
2023-02-05T13:47:19.954Z,102958.22
2023-02-05T13:50:01.723Z,102937.44
2023-02-05T13:52:49.528Z,102947.00
2023-02-05T13:55:53.911Z,102953.06
2023-02-05T13:58:43.567Z,102956.63
2023-02-05T14:01:24.415Z,102967.94
2023-02-05T14:04:03.228Z,102955.81
2023-02-05T14:06:35.572Z,102961.84
2023-02-05T14:09:08.387Z,102960.19
2023-02-05T14:11:53.978Z,102961.06
2023-02-05T14:14:32.717Z,102956.84
2023-02-05T14:17:01.382Z,102946.47
2023-02-05T14:19:56.976Z,102957.03
2023-02-05T14:22:44.291Z,102946.63
2023-02-05T14:25:36.634Z,102948.41
2023-02-05T14:28:15.495Z,102944.16
2023-02-05T14:30:58.855Z,102932.78
2023-02-05T14:33:37.511Z,102929.34
2023-02-05T14:36:25.508Z,102914.59
2023-02-05T14:38:55.483Z,102908.66
2023-02-05T14:41:27.670Z,102895.75
2023-02-05T14:44:02.005Z,102894.19
2023-02-05T14:46:31.636Z,102909.94
2023-02-05T14:49:01.376Z,102895.19
2023-02-05T14:51:34.108Z,102892.72
2023-02-05T14:54:04.969Z,102891.06
2023-02-05T14:56:40.753Z,102905.06
2023-02-05T14:59:49.864Z,102925.72
2023-02-05T15:02:51.900Z,102922.00
2023-02-05T15:05:29.051Z,102908.94
2023-02-05T15:08:23.013Z,102913.22
2023-02-05T15:11:08.416Z,102906.22
2023-02-05T15:13:35.459Z,102890.59
2023-02-05T15:16:15.360Z,102896.56
2023-02-05T15:18:49.362Z,102901.63
2023-02-05T15:21:27.295Z,102910.13
2023-02-05T15:24:01.646Z,102911.81
2023-02-05T15:26:49.653Z,102910.00
2023-02-05T15:29:35.616Z,102923.03
2023-02-05T15:32:16.634Z,102922.06
2023-02-05T15:34:54.729Z,102917.75
2023-02-05T15:37:41.025Z,102924.00
2023-02-05T15:40:27.423Z,102928.31
2023-02-05T15:43:16.233Z,102936.19
2023-02-05T15:45:46.645Z,102940.50
2023-02-05T15:48:24.584Z,102937.84
2023-02-05T15:51:17.649Z,102941.25
2023-02-05T15:53:49.403Z,102948.19
2023-02-05T15:56:32.872Z,102945.59
2023-02-05T15:59:11.515Z,102938.59
2023-02-05T16:01:48.086Z,102935.09
2023-02-05T16:04:31.608Z,102937.72
2023-02-05T16:06:59.682Z,102951.47
2023-02-05T16:09:28.958Z,102961.97
2023-02-05T16:11:56.078Z,102974.03
2023-02-05T16:14:28.668Z,102972.28
2023-02-05T16:17:34.016Z,102967.84
2023-02-05T16:20:07.479Z,102984.31
2023-02-05T16:22:34.069Z,102980.72
2023-02-05T16:25:06.338Z,102971.97
2023-02-05T16:27:43.460Z,102969.22
2023-02-05T16:30:40.944Z,102963.03
2023-02-05T16:33:17.463Z,102968.09
2023-02-05T16:35:48.484Z,102964.56
2023-02-05T16:38:17.087Z,102961.84
2023-02-05T16:40:48.485Z,102972.97
2023-02-05T16:43:32.269Z,102979.69
2023-02-05T16:46:08.189Z,102992.56
2023-02-05T16:48:41.721Z,102981.00
2023-02-05T16:51:31.747Z,102979.22
2023-02-05T16:54:19.454Z,102983.47
2023-02-05T16:57:13.767Z,102988.59
2023-02-05T16:59:57.146Z,102984.06
2023-02-05T17:02:42.240Z,102979.59
2023-02-05T17:05:47.721Z,102985.63
2023-02-05T17:08:14.398Z,102982.00
2023-02-05T17:10:56.461Z,102982.72
2023-02-05T17:13:43.481Z,102978.41
2023-02-05T17:16:21.021Z,102973.22
2023-02-05T17:18:59.840Z,102975.81
2023-02-05T17:21:44.333Z,102988.78
2023-02-05T17:24:10.966Z,103005.13
2023-02-05T17:26:40.950Z,103024.81
2023-02-05T17:29:14.152Z,103033.28
2023-02-05T17:31:40.827Z,103010.59
2023-02-05T17:34:07.546Z,102994.97
2023-02-05T17:36:34.247Z,103009.88
2023-02-05T17:39:01.031Z,103011.56
2023-02-05T17:41:48.747Z,103005.47
2023-02-05T17:44:18.054Z,103006.22
2023-02-05T17:46:45.255Z,103008.75
2023-02-05T17:49:11.995Z,103008.59
2023-02-05T17:51:42.905Z,103014.53
2023-02-05T17:54:14.968Z,103012.75
2023-02-05T17:56:42.222Z,103017.06
2023-02-05T17:59:12.171Z,103026.56
2023-02-05T18:01:38.914Z,103034.31
2023-02-05T18:04:05.777Z,103018.53
2023-02-05T18:06:32.447Z,103024.47
2023-02-05T18:08:59.294Z,103025.34
2023-02-05T18:11:26.077Z,103025.28
2023-02-05T18:13:52.730Z,103032.22
2023-02-05T18:16:19.448Z,103042.63
2023-02-05T18:18:47.552Z,103052.94
2023-02-05T18:21:14.498Z,103047.66
2023-02-05T18:23:41.436Z,103050.25
2023-02-05T18:26:08.774Z,103051.09
2023-02-05T18:28:35.963Z,103047.66
2023-02-05T18:31:08.456Z,103051.09
2023-02-05T18:33:36.938Z,103066.69
2023-02-05T18:36:09.250Z,103059.69
2023-02-05T18:38:36.728Z,103060.66
2023-02-05T18:41:10.943Z,103058.28
2023-02-05T18:43:38.009Z,103061.06
2023-02-05T18:46:16.050Z,103061.16
2023-02-05T18:48:46.476Z,103063.91
2023-02-05T18:51:15.874Z,103073.56
2023-02-05T18:53:44.461Z,103083.19
2023-02-05T18:56:19.839Z,103094.47
2023-02-05T18:58:56.403Z,103091.88
2023-02-05T19:01:23.361Z,103090.38
2023-02-05T19:03:52.821Z,103102.59
2023-02-05T19:06:20.748Z,103099.19
2023-02-05T19:08:48.254Z,103100.00
2023-02-05T19:11:20.319Z,103114.13
2023-02-05T19:13:47.948Z,103107.22
2023-02-05T19:16:17.765Z,103100.28
2023-02-05T19:18:46.027Z,103087.13
2023-02-05T19:21:16.308Z,103084.38
2023-02-05T19:23:44.877Z,103079.19
2023-02-05T19:26:17.588Z,103080.88
2023-02-05T19:28:46.054Z,103091.28
2023-02-05T19:31:15.037Z,103090.38
2023-02-05T19:33:42.235Z,103090.38
2023-02-05T19:36:10.667Z,103089.50
2023-02-05T19:38:39.078Z,103095.69
2023-02-05T19:41:14.372Z,103099.19
2023-02-05T19:43:43.728Z,103111.38
2023-02-05T19:46:10.482Z,103105.34
2023-02-05T19:48:37.157Z,103110.63
2023-02-05T19:51:05.570Z,103109.91
2023-02-05T19:53:32.427Z,103113.25
2023-02-05T19:56:07.307Z,103106.47
2023-02-05T19:58:36.020Z,103107.47
2023-02-05T20:01:13.074Z,103120.59
2023-02-05T20:03:40.251Z,103128.41
2023-02-05T20:06:08.412Z,103116.22
2023-02-05T20:08:35.490Z,103120.53
2023-02-05T20:11:02.595Z,103113.63
2023-02-05T20:13:31.163Z,103117.06
2023-02-05T20:16:05.368Z,103117.88
2023-02-05T20:18:32.328Z,103130.78
2023-02-05T20:20:59.461Z,103127.31
2023-02-05T20:23:26.606Z,103136.72
2023-02-05T20:25:57.568Z,103139.25
2023-02-05T20:28:28.011Z,103139.16
2023-02-05T20:31:13.175Z,103134.72
2023-02-05T20:33:40.002Z,103136.34
2023-02-05T20:36:08.952Z,103134.63
2023-02-05T20:38:35.844Z,103134.56
2023-02-05T20:41:31.991Z,103138.88
2023-02-05T20:43:58.791Z,103140.66
2023-02-05T20:46:26.219Z,103154.50
2023-02-05T20:48:53.168Z,103148.28
2023-02-05T20:51:22.757Z,103152.69
2023-02-05T20:53:50.318Z,103154.31
2023-02-05T20:56:19.555Z,103154.31
2023-02-05T20:58:47.323Z,103151.63
2023-02-05T21:01:17.690Z,103151.63
2023-02-05T21:03:46.397Z,103158.47
2023-02-05T21:06:14.505Z,103145.31
2023-02-05T21:08:43.668Z,103141.66
2023-02-05T21:11:10.443Z,103132.84
2023-02-05T21:13:37.230Z,103143.25
2023-02-05T21:16:04.214Z,103138.88
2023-02-05T21:18:31.305Z,103143.25
2023-02-05T21:21:31.515Z,103143.44
2023-02-05T21:24:04.029Z,103139.94
2023-02-05T21:26:49.374Z,103146.91
2023-02-05T21:29:19.116Z,103137.34
2023-02-05T21:31:52.840Z,103138.16
2023-02-05T21:34:22.485Z,103138.00
2023-02-05T21:36:49.767Z,103146.69
2023-02-05T21:39:17.410Z,103148.31
2023-02-05T21:41:47.685Z,103161.25
2023-02-05T21:44:14.704Z,103152.28
2023-02-05T21:46:41.406Z,103161.81
2023-02-05T21:49:10.622Z,103168.66
2023-02-05T21:51:37.773Z,103158.97
2023-02-05T21:54:06.257Z,103166.66
2023-02-05T21:56:36.151Z,103169.03
2023-02-05T21:59:02.849Z,103169.69
2023-02-05T22:01:32.488Z,103167.63
2023-02-05T22:04:01.629Z,103170.06
2023-02-05T22:06:31.015Z,103169.13
2023-02-05T22:08:58.838Z,103169.00
2023-02-05T22:11:26.337Z,103160.31
2023-02-05T22:13:54.609Z,103169.13
2023-02-05T22:16:27.235Z,103172.66
2023-02-05T22:18:54.913Z,103172.78
2023-02-05T22:21:27.506Z,103184.13
2023-02-05T22:23:56.826Z,103181.47
2023-02-05T22:26:31.161Z,103182.47
2023-02-05T22:28:59.606Z,103182.53
2023-02-05T22:31:27.561Z,103183.59
2023-02-05T22:33:54.862Z,103181.97
2023-02-05T22:36:24.026Z,103185.63
2023-02-05T22:38:52.033Z,103178.88
2023-02-05T22:41:25.130Z,103188.47
2023-02-05T22:43:53.188Z,103175.47
2023-02-05T22:46:23.780Z,103190.41
2023-02-05T22:48:53.693Z,103183.44
2023-02-05T22:51:26.808Z,103185.22
2023-02-05T22:53:54.400Z,103188.63
2023-02-05T22:56:22.083Z,103197.25
2023-02-05T22:58:50.801Z,103204.91
2023-02-05T23:01:26.055Z,103197.88
2023-02-05T23:03:52.935Z,103198.81
2023-02-05T23:06:19.590Z,103190.91
2023-02-05T23:08:52.057Z,103195.94
2023-02-05T23:11:19.551Z,103198.38
2023-02-05T23:13:46.764Z,103212.25
2023-02-05T23:16:16.153Z,103204.56
2023-02-05T23:18:43.145Z,103208.88
2023-02-05T23:21:12.528Z,103204.56
2023-02-05T23:23:39.398Z,103207.22
2023-02-05T23:26:08.361Z,103207.34
2023-02-05T23:28:35.757Z,103207.41
2023-02-05T23:31:03.010Z,103209.94
2023-02-05T23:33:30.256Z,103208.28
2023-02-05T23:35:57.056Z,103206.50
2023-02-05T23:38:25.177Z,103196.03
2023-02-05T23:40:53.710Z,103181.22
2023-02-05T23:43:21.621Z,103173.34
2023-02-05T23:45:49.687Z,103178.72
2023-02-05T23:48:16.893Z,103177.25
2023-02-05T23:50:44.576Z,103171.25
2023-02-05T23:53:11.786Z,103184.97
2023-02-05T23:55:40.547Z,103179.78
2023-02-05T23:58:08.196Z,103180.50
